Nearby METAR Reports

KLWM - Lawrence,MA, USA
Distance from station: NE 12mi, 19km
Updated: Mon, 20-Jan-2020 5:54am EST
Overcast
Overcast
 Wind from NW
Wind: NW 9 mph , 15 km/h
Temperature: 16°F , -9°C
Wind Chill: 5°F , -15°C
Dew Point: 3°F , -16°C
Humidity: 57%
Barometer: 30.06 inHg , 1017.9 hPa
Clouds: Overcast
Visibility: 10 miles , 16 km
Cloud details: Overcast 7500 ft
2020/01/20 10:54 KLWM 201054Z AUTO 32008KT 10SM OVC075 M09/M16 A3006 RMK AO2 PRESRR SLP180 T10941161
KBED - Bedford,MA, USA
Distance from station: SSE 12mi, 19km
Updated: Mon, 20-Jan-2020 5:51am EST
Light snow, Mist, Overcast
Light snow, Mist, Overcast
 Wind from NNW
Wind: NNW 12 mph , 19 km/h
Temperature: 16°F , -9°C
Wind Chill: 3°F , -16°C
Dew Point: 1°F , -17°C
Humidity: 53%
Barometer: 30.04 inHg , 1017.3 hPa
Summary: Light snow, Mist
Clouds: Overcast
Visibility: 9 miles , 14 km
Cloud details: Overcast 7000 ft
2020/01/20 10:51 KBED 201051Z AUTO 33010KT 9SM -SN BR OVC070 M09/M17 A3004 RMK AO2 SLP189 P0000 T10891167 $

Metar display script from Saratoga-Weather.org